Flight Track Log - Related Links

Times and Time Zones

All times are in EDT time to prevent confusion due to time zone crossing. See the N516QS flight status page for this flight to view local times or setup timezone preferences in your user account.

Time Position Orientation Groundspeed Altitude Reporting Facility
EDT Latitude Longitude Course Direction KTS MPH feet Rate Location/Type
Mon 02:33:56 PM 41.1000 -73.7667 349° North 200 230 2,600  Level New York TRACON
Mon 02:34:56 PM 41.1333 -73.8167 312° West 245 282 4,100 1,800 Climbing New York TRACON
Mon 02:35:56 PM 41.2000 -73.8000 11° North 269 310 6,200 2,211 Climbing New York TRACON
Mon 02:37:28 PM 41.2331 -73.6408 75° East 301 346 9,700 2,250 Climbing Boston Center
Mon 02:38:28 PM 41.2819 -73.5644 50° Northeast 284 327 11,900 2,350 Climbing Boston Center
Mon 02:39:00 PM 41.7648 -73.1245 349° North  Level FlightAware Approximate
Mon 02:39:28 PM 41.3619 -73.4661 43° Northeast 315 362 14,400  Level Boston Center
Mon 02:40:28 PM 41.4275 -73.3814 44° Northeast 356 410 17,200 2,850 Climbing Boston Center
Mon 02:41:28 PM 41.5178 -73.2664 44° Northeast 378 435 20,100 2,850 Climbing Boston Center
Mon 02:42:28 PM 41.5958 -73.1592 46° Northeast 383 441 22,900 2,450 Climbing Boston Center
Mon 02:43:28 PM 41.6736 -73.0375 49° Northeast 410 472 25,000 2,400 Climbing Boston Center
Mon 02:44:28 PM 41.7556 -72.9103 49° Northeast 435 501 27,700 2,500 Climbing Boston Center
Mon 02:45:28 PM 41.8392 -72.7772 50° Northeast 447 514 30,000 1,650 Climbing Boston Center
Mon 02:46:28 PM 41.9250 -72.6467 49° Northeast 459 528 31,000 500 Climbing Boston Center
Mon 02:47:28 PM 42.0044 -72.5128 51° Northeast 453 521 31,000  Level Boston Center
Mon 02:48:28 PM 42.0878 -72.3786 50° Northeast 453 521 31,000  Level Boston Center
Mon 02:49:28 PM 42.1625 -72.2328 55° Northeast 458 527 31,000  Level Boston Center
Mon 02:50:28 PM 42.2208 -72.1206 55° Northeast 463 533 31,000  Level Boston Center
Mon 02:51:28 PM 42.3097 -71.9461 55° Northeast 468 539 31,000  Level Boston Center
Mon 02:52:28 PM 42.3839 -71.7992 56° Northeast 468 539 31,000  Level Boston Center
Mon 02:53:28 PM 42.4519 -71.6692 55° Northeast 475 547 31,000  Level Boston Center
Mon 02:54:28 PM 42.5383 -71.5131 53° Northeast 470 541 31,000  Level Boston Center
Mon 02:55:28 PM 42.6142 -71.3681 55° Northeast 470 541 31,000  Level Boston Center
Mon 02:56:28 PM 42.6919 -71.2256 53° Northeast 470 541 31,000  Level Boston Center
Mon 02:58:04 PM 42.8106 -71.0364 49° Northeast 470 541 31,000  Level Boston Center
Mon 02:59:04 PM 42.8964 -70.9011 49° Northeast 464 534 31,000  Level Boston Center
Mon 03:00:04 PM 43.0025 -70.7394 48° Northeast 464 534 31,000  Level Boston Center
Mon 03:01:04 PM 43.0697 -70.6297 50° Northeast 464 534 31,000  Level Boston Center
Mon 03:02:04 PM 43.1569 -70.4933 49° Northeast 464 534 31,000  Level Boston Center
Mon 03:03:04 PM 43.2603 -70.3275 49° Northeast 464 534 31,000 -900 Level Boston Center
Mon 03:04:04 PM 43.3453 -70.1903 50° Northeast 464 534 29,200 -1,636 Descending Boston Center
Mon 03:05:16 PM 43.4178 -70.0706 50° Northeast 459 528 27,400 -1,864 Descending Boston Center
Mon 03:06:16 PM 43.5167 -69.9092 50° Northeast 459 528 25,100 -1,950 Descending Boston Center
Mon 03:07:16 PM 43.5808 -69.8061 49° Northeast 454 522 23,500 -1,950 Descending Boston Center
Mon 03:08:16 PM 43.6733 -69.6556 50° Northeast 437 503 21,200 -2,050 Descending Boston Center
Mon 03:09:16 PM 43.7453 -69.5344 51° Northeast 419 482 19,400 -1,750 Descending Boston Center
Mon 03:10:16 PM 43.8275 -69.4094 48° Northeast 396 456 17,700 -1,250 Descending Boston Center
Mon 03:11:16 PM 43.8892 -69.2997 52° Northeast 396 456 16,900 -1,350 Descending Boston Center
Mon 03:12:16 PM 43.9589 -69.1864 49° Northeast 396 456 15,000 -1,900 Descending Boston Center
Mon 03:13:16 PM 44.0267 -69.0789 49° Northeast 384 442 13,100 -1,850 Descending Boston Center
Mon 03:14:16 PM 44.0922 -68.9681 51° Northeast 372 428 11,300 -1,700 Descending Boston Center
Mon 03:15:16 PM 44.1536 -68.8661 50° Northeast 362 417 9,700 -1,450 Descending Boston Center
Mon 03:16:16 PM 44.2053 -68.7819 49° Northeast 325 374 8,400 -1,550 Descending Boston Center
Mon 03:17:16 PM 44.2481 -68.6894 57° Northeast 292 336 6,600 -1,750 Descending Boston Center
Mon 03:18:16 PM 44.2697 -68.5836 74° East 273 314 4,900 -1,050 Descending Boston Center
Mon 03:19:16 PM 44.2911 -68.4836 73° East 257 296 4,500 -650 Descending Boston Center
Mon 03:20:16 PM 44.3094 -68.4097 71° East 226 260 3,600 -900 Descending Boston Center
Mon 03:21:16 PM 44.3367 -68.3500 57° Northeast 196 226 2,700 -1,000 Descending Boston Center
Mon 03:22:16 PM 44.3781 -68.3411 North 153 176 1,600 -550 Descending Boston Center
Mon 03:23:16 PM 44.4167 -68.3122 28° Northeast 148 170 1,600 -50 Level Boston Center
Mon 03:24:16 PM 44.4575 -68.2892 22° Northeast 153 176 1,500 -300 Descending Boston Center
Mon 03:25:16 PM 44.4811 -68.3136 324° Northwest 111 128 1,000 -500 Descending Boston Center
Mon 03:26:16 PM 44.4742 -68.3492 255° West 68 78 500 -500 Descending Boston Center
Mon 03:28:00 PM 44.4498 -68.3616 200° South  Level Estimated

Login

Don't have an account? Register now (free) for customized features, flight alerts, and more!